Allisonia, Virginia
Current Conditions -  °F | °C
As of 8:55 PM on Sunday 25 Jan 2015 (Local Time) from KPSK Reporting Station
Broken Clouds Broken Clouds  
Wind Chill: 41°   Ceiling: 9500
Heat Index: 41°   Visibility: 10mi
Dew Point: 32°   Wind: 0mph
Humidity: 71%   Direction: NA
Pressure: 29.75"   Gusts: NA
Location:  36.9752°N, 80.6434°W
Report Text: KPSK 260155Z AUTO 00000KT 10SM SCT085 BKN095 BKN120 05/00 A2975 RMK AO2 T00481001
Loading
Personal Weather Stations






























Interactive Weather Map New forecast layout! Learn more

10-Day Weather Forecast

Advertisements
Track Severe Weather on mobile